sensor_id;sensor_type;location;lat;lon;timestamp;P1;durP1;ratioP1;P2;durP2;ratioP2
4317;SDS011;2172;53.576;9.934;2023-04-03T00:02:31;6.30;;;3.67;;
4317;SDS011;2172;53.576;9.934;2023-04-03T00:04:59;6.70;;;2.87;;
4317;SDS011;2172;53.576;9.934;2023-04-03T00:07:26;6.73;;;3.30;;
4317;SDS011;2172;53.576;9.934;2023-04-03T00:09:54;6.90;;;3.93;;
4317;SDS011;2172;53.576;9.934;2023-04-03T00:12:21;7.30;;;3.03;;
4317;SDS011;2172;53.576;9.934;2023-04-03T00:14:49;4.57;;;2.90;;
4317;SDS011;2172;53.576;9.934;2023-04-03T00:17:18;7.73;;;3.37;;
4317;SDS011;2172;53.576;9.934;2023-04-03T00:19:45;10.73;;;3.17;;
4317;SDS011;2172;53.576;9.934;2023-04-03T00:22:13;6.80;;;2.53;;
4317;SDS011;2172;53.576;9.934;2023-04-03T00:24:40;7.63;;;3.50;;
4317;SDS011;2172;53.576;9.934;2023-04-03T00:27:08;7.00;;;2.97;;
4317;SDS011;2172;53.576;9.934;2023-04-03T00:29:36;6.30;;;2.97;;
4317;SDS011;2172;53.576;9.934;2023-04-03T00:32:03;6.90;;;3.40;;
4317;SDS011;2172;53.576;9.934;2023-04-03T00:34:32;8.00;;;3.00;;
4317;SDS011;2172;53.576;9.934;2023-04-03T00:37:00;6.60;;;3.30;;
4317;SDS011;2172;53.576;9.934;2023-04-03T00:39:27;4.00;;;2.77;;
4317;SDS011;2172;53.576;9.934;2023-04-03T00:41:55;4.60;;;2.90;;
4317;SDS011;2172;53.576;9.934;2023-04-03T00:45:21;6.00;;;2.47;;
4317;SDS011;2172;53.576;9.934;2023-04-03T00:47:29;6.30;;;2.57;;
4317;SDS011;2172;53.576;9.934;2023-04-03T00:49:58;8.47;;;3.30;;
4317;SDS011;2172;53.576;9.934;2023-04-03T00:52:28;6.83;;;3.83;;
4317;SDS011;2172;53.576;9.934;2023-04-03T00:54:57;10.37;;;4.30;;
4317;SDS011;2172;53.576;9.934;2023-04-03T00:57:26;8.57;;;3.40;;
4317;SDS011;2172;53.576;9.934;2023-04-03T00:59:54;10.40;;;3.43;;
4317;SDS011;2172;53.576;9.934;2023-04-03T01:02:24;5.83;;;3.37;;
4317;SDS011;2172;53.576;9.934;2023-04-03T01:04:52;7.97;;;3.47;;
4317;SDS011;2172;53.576;9.934;2023-04-03T01:07:22;8.10;;;3.50;;
4317;SDS011;2172;53.576;9.934;2023-04-03T01:09:53;7.37;;;3.20;;
4317;SDS011;2172;53.576;9.934;2023-04-03T01:12:25;6.47;;;3.47;;
4317;SDS011;2172;53.576;9.934;2023-04-03T01:14:55;7.70;;;3.30;;
4317;SDS011;2172;53.576;9.934;2023-04-03T01:17:26;8.93;;;3.60;;
4317;SDS011;2172;53.576;9.934;2023-04-03T01:19:57;8.97;;;3.67;;
4317;SDS011;2172;53.576;9.934;2023-04-03T01:22:51;10.00;;;3.80;;
4317;SDS011;2172;53.576;9.934;2023-04-03T01:25:21;7.90;;;3.57;;
4317;SDS011;2172;53.576;9.934;2023-04-03T01:27:50;8.57;;;3.73;;
4317;SDS011;2172;53.576;9.934;2023-04-03T01:30:18;8.80;;;3.47;;
4317;SDS011;2172;53.576;9.934;2023-04-03T01:32:48;9.90;;;3.43;;
4317;SDS011;2172;53.576;9.934;2023-04-03T01:35:16;6.83;;;3.57;;
4317;SDS011;2172;53.576;9.934;2023-04-03T01:37:43;9.57;;;3.63;;
4317;SDS011;2172;53.576;9.934;2023-04-03T01:40:11;6.27;;;3.10;;
4317;SDS011;2172;53.576;9.934;2023-04-03T01:42:38;7.10;;;3.50;;
4317;SDS011;2172;53.576;9.934;2023-04-03T01:45:06;9.10;;;3.90;;
4317;SDS011;2172;53.576;9.934;2023-04-03T01:47:34;5.70;;;3.00;;
4317;SDS011;2172;53.576;9.934;2023-04-03T01:50:04;6.43;;;3.70;;
4317;SDS011;2172;53.576;9.934;2023-04-03T01:52:33;10.60;;;3.50;;
4317;SDS011;2172;53.576;9.934;2023-04-03T01:55:00;10.33;;;4.70;;
4317;SDS011;2172;53.576;9.934;2023-04-03T01:57:28;10.77;;;3.47;;
4317;SDS011;2172;53.576;9.934;2023-04-03T01:59:56;9.53;;;3.67;;
4317;SDS011;2172;53.576;9.934;2023-04-03T02:02:24;7.67;;;2.90;;
4317;SDS011;2172;53.576;9.934;2023-04-03T02:04:51;8.40;;;3.50;;
4317;SDS011;2172;53.576;9.934;2023-04-03T02:07:21;6.90;;;3.27;;
4317;SDS011;2172;53.576;9.934;2023-04-03T02:09:49;9.23;;;3.43;;
4317;SDS011;2172;53.576;9.934;2023-04-03T02:12:17;5.17;;;3.00;;
4317;SDS011;2172;53.576;9.934;2023-04-03T02:14:45;7.17;;;3.30;;
4317;SDS011;2172;53.576;9.934;2023-04-03T02:17:12;7.73;;;3.43;;
4317;SDS011;2172;53.576;9.934;2023-04-03T02:19:40;6.07;;;3.13;;
4317;SDS011;2172;53.576;9.934;2023-04-03T02:22:07;4.70;;;3.87;;
4317;SDS011;2172;53.576;9.934;2023-04-03T02:24:36;4.80;;;2.80;;
4317;SDS011;2172;53.576;9.934;2023-04-03T02:27:05;8.37;;;3.50;;
4317;SDS011;2172;53.576;9.934;2023-04-03T02:29:33;5.73;;;3.37;;
4317;SDS011;2172;53.576;9.934;2023-04-03T02:32:00;8.30;;;3.33;;
4317;SDS011;2172;53.576;9.934;2023-04-03T02:34:29;4.60;;;3.00;;
4317;SDS011;2172;53.576;9.934;2023-04-03T02:36:58;8.13;;;3.37;;
4317;SDS011;2172;53.576;9.934;2023-04-03T02:39:26;8.03;;;3.20;;
4317;SDS011;2172;53.576;9.934;2023-04-03T02:41:56;9.67;;;3.73;;
4317;SDS011;2172;53.576;9.934;2023-04-03T02:44:24;7.60;;;3.90;;
4317;SDS011;2172;53.576;9.934;2023-04-03T02:46:52;7.60;;;3.23;;
4317;SDS011;2172;53.576;9.934;2023-04-03T02:49:19;6.77;;;3.13;;
4317;SDS011;2172;53.576;9.934;2023-04-03T02:51:47;5.50;;;3.53;;
4317;SDS011;2172;53.576;9.934;2023-04-03T02:54:16;7.43;;;4.10;;
4317;SDS011;2172;53.576;9.934;2023-04-03T02:56:48;7.10;;;3.73;;
4317;SDS011;2172;53.576;9.934;2023-04-03T02:59:17;6.13;;;3.43;;
4317;SDS011;2172;53.576;9.934;2023-04-03T03:01:45;6.80;;;3.50;;
4317;SDS011;2172;53.576;9.934;2023-04-03T03:04:12;5.57;;;3.93;;
4317;SDS011;2172;53.576;9.934;2023-04-03T03:06:40;6.43;;;4.10;;
4317;SDS011;2172;53.576;9.934;2023-04-03T03:09:08;8.53;;;3.83;;
4317;SDS011;2172;53.576;9.934;2023-04-03T03:11:35;7.10;;;3.30;;
4317;SDS011;2172;53.576;9.934;2023-04-03T03:14:03;8.43;;;4.20;;
4317;SDS011;2172;53.576;9.934;2023-04-03T03:16:33;13.10;;;3.40;;
4317;SDS011;2172;53.576;9.934;2023-04-03T03:19:01;8.10;;;3.53;;
4317;SDS011;2172;53.576;9.934;2023-04-03T03:21:28;7.10;;;3.40;;
4317;SDS011;2172;53.576;9.934;2023-04-03T03:23:56;5.30;;;3.20;;
4317;SDS011;2172;53.576;9.934;2023-04-03T03:26:23;9.17;;;3.50;;
4317;SDS011;2172;53.576;9.934;2023-04-03T03:28:51;7.50;;;3.47;;
4317;SDS011;2172;53.576;9.934;2023-04-03T03:31:19;8.17;;;3.40;;
4317;SDS011;2172;53.576;9.934;2023-04-03T03:33:48;5.70;;;3.03;;
4317;SDS011;2172;53.576;9.934;2023-04-03T03:36:15;7.57;;;3.40;;
4317;SDS011;2172;53.576;9.934;2023-04-03T03:38:42;10.90;;;3.20;;
4317;SDS011;2172;53.576;9.934;2023-04-03T03:41:10;5.53;;;3.37;;
4317;SDS011;2172;53.576;9.934;2023-04-03T03:43:39;11.80;;;5.73;;
4317;SDS011;2172;53.576;9.934;2023-04-03T03:46:07;10.60;;;5.03;;
4317;SDS011;2172;53.576;9.934;2023-04-03T03:48:35;13.03;;;5.13;;
4317;SDS011;2172;53.576;9.934;2023-04-03T03:51:03;11.13;;;5.27;;
4317;SDS011;2172;53.576;9.934;2023-04-03T03:53:35;12.10;;;5.60;;
4317;SDS011;2172;53.576;9.934;2023-04-03T03:56:06;9.97;;;5.30;;
4317;SDS011;2172;53.576;9.934;2023-04-03T03:58:36;14.10;;;5.97;;
4317;SDS011;2172;53.576;9.934;2023-04-03T04:01:04;8.73;;;5.63;;
4317;SDS011;2172;53.576;9.934;2023-04-03T04:03:35;16.23;;;6.40;;
4317;SDS011;2172;53.576;9.934;2023-04-03T04:06:05;10.60;;;5.60;;
4317;SDS011;2172;53.576;9.934;2023-04-03T04:08:33;18.93;;;6.73;;
4317;SDS011;2172;53.576;9.934;2023-04-03T04:11:00;13.77;;;6.20;;
4317;SDS011;2172;53.576;9.934;2023-04-03T04:13:29;16.20;;;7.00;;
4317;SDS011;2172;53.576;9.934;2023-04-03T04:15:57;15.33;;;6.00;;
4317;SDS011;2172;53.576;9.934;2023-04-03T04:18:25;9.60;;;6.37;;
4317;SDS011;2172;53.576;9.934;2023-04-03T04:20:52;11.93;;;5.57;;
4317;SDS011;2172;53.576;9.934;2023-04-03T04:23:22;13.80;;;6.50;;
4317;SDS011;2172;53.576;9.934;2023-04-03T04:25:51;10.93;;;5.33;;
4317;SDS011;2172;53.576;9.934;2023-04-03T04:28:19;11.67;;;5.57;;
4317;SDS011;2172;53.576;9.934;2023-04-03T04:30:49;9.07;;;5.13;;
4317;SDS011;2172;53.576;9.934;2023-04-03T04:33:18;11.23;;;6.63;;
4317;SDS011;2172;53.576;9.934;2023-04-03T04:35:47;10.40;;;4.83;;
4317;SDS011;2172;53.576;9.934;2023-04-03T04:38:17;8.77;;;6.60;;
4317;SDS011;2172;53.576;9.934;2023-04-03T04:40:46;9.63;;;4.87;;
4317;SDS011;2172;53.576;9.934;2023-04-03T04:43:14;12.13;;;4.33;;
4317;SDS011;2172;53.576;9.934;2023-04-03T04:45:44;7.87;;;4.57;;
4317;SDS011;2172;53.576;9.934;2023-04-03T04:48:12;12.17;;;4.90;;
4317;SDS011;2172;53.576;9.934;2023-04-03T04:50:40;8.07;;;4.57;;
4317;SDS011;2172;53.576;9.934;2023-04-03T04:53:07;6.97;;;4.37;;
4317;SDS011;2172;53.576;9.934;2023-04-03T04:55:35;9.17;;;4.87;;
4317;SDS011;2172;53.576;9.934;2023-04-03T04:58:04;8.80;;;4.20;;
4317;SDS011;2172;53.576;9.934;2023-04-03T05:00:33;13.80;;;5.07;;
4317;SDS011;2172;53.576;9.934;2023-04-03T05:03:00;8.73;;;5.40;;
4317;SDS011;2172;53.576;9.934;2023-04-03T05:05:28;8.90;;;4.47;;
4317;SDS011;2172;53.576;9.934;2023-04-03T05:07:56;8.50;;;4.23;;
4317;SDS011;2172;53.576;9.934;2023-04-03T05:10:24;9.00;;;5.07;;
4317;SDS011;2172;53.576;9.934;2023-04-03T05:12:52;9.27;;;5.80;;
4317;SDS011;2172;53.576;9.934;2023-04-03T05:15:21;7.03;;;4.40;;
4317;SDS011;2172;53.576;9.934;2023-04-03T05:17:49;7.60;;;4.40;;
4317;SDS011;2172;53.576;9.934;2023-04-03T05:20:16;7.90;;;4.57;;
4317;SDS011;2172;53.576;9.934;2023-04-03T05:22:45;13.40;;;6.20;;
4317;SDS011;2172;53.576;9.934;2023-04-03T05:25:13;10.23;;;4.50;;
4317;SDS011;2172;53.576;9.934;2023-04-03T05:27:43;12.03;;;4.80;;
4317;SDS011;2172;53.576;9.934;2023-04-03T05:30:11;9.03;;;4.47;;
4317;SDS011;2172;53.576;9.934;2023-04-03T05:32:42;8.67;;;3.90;;
4317;SDS011;2172;53.576;9.934;2023-04-03T05:35:26;11.93;;;5.33;;
4317;SDS011;2172;53.576;9.934;2023-04-03T05:37:57;8.60;;;4.37;;
4317;SDS011;2172;53.576;9.934;2023-04-03T05:40:25;6.77;;;4.63;;
4317;SDS011;2172;53.576;9.934;2023-04-03T05:42:55;8.00;;;4.83;;
4317;SDS011;2172;53.576;9.934;2023-04-03T05:45:25;7.63;;;4.30;;
4317;SDS011;2172;53.576;9.934;2023-04-03T05:47:54;9.90;;;4.83;;
4317;SDS011;2172;53.576;9.934;2023-04-03T05:50:22;8.47;;;4.70;;
4317;SDS011;2172;53.576;9.934;2023-04-03T05:52:52;7.63;;;4.63;;
4317;SDS011;2172;53.576;9.934;2023-04-03T05:55:20;10.80;;;5.40;;
4317;SDS011;2172;53.576;9.934;2023-04-03T05:57:48;9.67;;;4.80;;
4317;SDS011;2172;53.576;9.934;2023-04-03T06:00:16;9.90;;;3.80;;
4317;SDS011;2172;53.576;9.934;2023-04-03T06:02:55;6.73;;;3.93;;
4317;SDS011;2172;53.576;9.934;2023-04-03T06:05:24;4.53;;;3.83;;
4317;SDS011;2172;53.576;9.934;2023-04-03T06:07:51;6.23;;;4.17;;
4317;SDS011;2172;53.576;9.934;2023-04-03T06:10:19;15.23;;;4.20;;
4317;SDS011;2172;53.576;9.934;2023-04-03T06:12:46;7.30;;;3.97;;
4317;SDS011;2172;53.576;9.934;2023-04-03T06:15:14;10.70;;;4.57;;
4317;SDS011;2172;53.576;9.934;2023-04-03T06:17:42;6.87;;;3.77;;
4317;SDS011;2172;53.576;9.934;2023-04-03T06:20:12;4.30;;;3.30;;
4317;SDS011;2172;53.576;9.934;2023-04-03T06:22:40;7.63;;;3.70;;
4317;SDS011;2172;53.576;9.934;2023-04-03T06:25:08;6.20;;;4.10;;
4317;SDS011;2172;53.576;9.934;2023-04-03T06:27:37;7.43;;;4.43;;
4317;SDS011;2172;53.576;9.934;2023-04-03T06:30:05;8.40;;;4.93;;
4317;SDS011;2172;53.576;9.934;2023-04-03T06:32:34;12.17;;;3.37;;
4317;SDS011;2172;53.576;9.934;2023-04-03T06:35:01;9.77;;;5.57;;
4317;SDS011;2172;53.576;9.934;2023-04-03T06:37:30;9.63;;;4.10;;
4317;SDS011;2172;53.576;9.934;2023-04-03T06:39:58;12.67;;;3.93;;
4317;SDS011;2172;53.576;9.934;2023-04-03T06:42:26;11.50;;;4.10;;
4317;SDS011;2172;53.576;9.934;2023-04-03T06:45:00;4.63;;;3.50;;
4317;SDS011;2172;53.576;9.934;2023-04-03T06:47:27;6.07;;;3.80;;
4317;SDS011;2172;53.576;9.934;2023-04-03T06:49:55;9.13;;;3.77;;
4317;SDS011;2172;53.576;9.934;2023-04-03T06:52:22;5.63;;;3.60;;
4317;SDS011;2172;53.576;9.934;2023-04-03T06:54:51;5.23;;;3.43;;
4317;SDS011;2172;53.576;9.934;2023-04-03T06:57:22;4.27;;;2.93;;
4317;SDS011;2172;53.576;9.934;2023-04-03T06:59:50;6.90;;;3.40;;
4317;SDS011;2172;53.576;9.934;2023-04-03T07:02:18;6.60;;;2.90;;
4317;SDS011;2172;53.576;9.934;2023-04-03T07:04:45;5.17;;;3.40;;
4317;SDS011;2172;53.576;9.934;2023-04-03T07:07:13;8.23;;;2.83;;
4317;SDS011;2172;53.576;9.934;2023-04-03T07:09:42;4.70;;;2.43;;
4317;SDS011;2172;53.576;9.934;2023-04-03T07:12:11;8.13;;;3.30;;
4317;SDS011;2172;53.576;9.934;2023-04-03T07:14:38;5.93;;;3.60;;
4317;SDS011;2172;53.576;9.934;2023-04-03T07:17:06;5.70;;;2.90;;
4317;SDS011;2172;53.576;9.934;2023-04-03T07:19:34;5.70;;;2.97;;
4317;SDS011;2172;53.576;9.934;2023-04-03T07:22:01;5.40;;;2.83;;
4317;SDS011;2172;53.576;9.934;2023-04-03T07:24:29;7.57;;;2.67;;
4317;SDS011;2172;53.576;9.934;2023-04-03T07:26:56;4.73;;;2.50;;
4317;SDS011;2172;53.576;9.934;2023-04-03T07:29:25;8.20;;;2.13;;
4317;SDS011;2172;53.576;9.934;2023-04-03T07:31:53;5.07;;;2.40;;
4317;SDS011;2172;53.576;9.934;2023-04-03T07:34:21;3.37;;;2.00;;
4317;SDS011;2172;53.576;9.934;2023-04-03T07:36:48;3.20;;;2.17;;
4317;SDS011;2172;53.576;9.934;2023-04-03T07:39:16;3.73;;;1.80;;
4317;SDS011;2172;53.576;9.934;2023-04-03T07:41:44;6.30;;;2.10;;
4317;SDS011;2172;53.576;9.934;2023-04-03T07:44:11;6.10;;;1.67;;
4317;SDS011;2172;53.576;9.934;2023-04-03T07:46:41;4.20;;;1.67;;
4317;SDS011;2172;53.576;9.934;2023-04-03T07:49:08;4.27;;;1.60;;
4317;SDS011;2172;53.576;9.934;2023-04-03T07:51:36;2.97;;;1.83;;
4317;SDS011;2172;53.576;9.934;2023-04-03T07:54:03;6.60;;;1.87;;
4317;SDS011;2172;53.576;9.934;2023-04-03T07:56:31;3.30;;;1.30;;
4317;SDS011;2172;53.576;9.934;2023-04-03T07:58:59;3.57;;;1.63;;
4317;SDS011;2172;53.576;9.934;2023-04-03T08:01:26;3.27;;;1.27;;
4317;SDS011;2172;53.576;9.934;2023-04-03T08:03:59;3.77;;;1.77;;
4317;SDS011;2172;53.576;9.934;2023-04-03T08:06:26;3.70;;;1.50;;
4317;SDS011;2172;53.576;9.934;2023-04-03T08:08:55;3.30;;;2.00;;
4317;SDS011;2172;53.576;9.934;2023-04-03T08:11:24;5.00;;;1.60;;
4317;SDS011;2172;53.576;9.934;2023-04-03T08:13:52;2.37;;;1.50;;
4317;SDS011;2172;53.576;9.934;2023-04-03T08:16:20;4.77;;;1.53;;
4317;SDS011;2172;53.576;9.934;2023-04-03T08:18:50;6.37;;;2.60;;
4317;SDS011;2172;53.576;9.934;2023-04-03T08:21:19;6.20;;;1.87;;
4317;SDS011;2172;53.576;9.934;2023-04-03T08:23:47;3.47;;;1.50;;
4317;SDS011;2172;53.576;9.934;2023-04-03T08:26:16;6.33;;;2.00;;
4317;SDS011;2172;53.576;9.934;2023-04-03T08:28:46;5.13;;;1.77;;
4317;SDS011;2172;53.576;9.934;2023-04-03T08:31:14;7.57;;;2.40;;
4317;SDS011;2172;53.576;9.934;2023-04-03T08:33:43;6.43;;;1.70;;
4317;SDS011;2172;53.576;9.934;2023-04-03T08:36:16;4.70;;;2.33;;
4317;SDS011;2172;53.576;9.934;2023-04-03T08:38:47;4.60;;;2.10;;
4317;SDS011;2172;53.576;9.934;2023-04-03T08:41:15;4.30;;;1.70;;
4317;SDS011;2172;53.576;9.934;2023-04-03T08:43:53;5.07;;;1.40;;
4317;SDS011;2172;53.576;9.934;2023-04-03T08:46:26;3.60;;;1.63;;
4317;SDS011;2172;53.576;9.934;2023-04-03T08:48:59;3.47;;;1.40;;
4317;SDS011;2172;53.576;9.934;2023-04-03T08:51:28;3.33;;;1.80;;
4317;SDS011;2172;53.576;9.934;2023-04-03T08:53:58;3.53;;;1.60;;
4317;SDS011;2172;53.576;9.934;2023-04-03T08:56:27;4.33;;;1.40;;
4317;SDS011;2172;53.576;9.934;2023-04-03T08:58:56;2.73;;;1.13;;
4317;SDS011;2172;53.576;9.934;2023-04-03T09:01:26;3.30;;;1.33;;
4317;SDS011;2172;53.576;9.934;2023-04-03T09:03:57;3.70;;;1.63;;
4317;SDS011;2172;53.576;9.934;2023-04-03T09:06:29;3.03;;;1.67;;
4317;SDS011;2172;53.576;9.934;2023-04-03T09:09:02;3.10;;;1.50;;
4317;SDS011;2172;53.576;9.934;2023-04-03T09:11:40;3.50;;;1.50;;
4317;SDS011;2172;53.576;9.934;2023-04-03T09:14:14;3.10;;;1.60;;
4317;SDS011;2172;53.576;9.934;2023-04-03T09:16:47;2.90;;;1.53;;
4317;SDS011;2172;53.576;9.934;2023-04-03T09:19:20;3.27;;;1.30;;
4317;SDS011;2172;53.576;9.934;2023-04-03T09:21:55;2.10;;;1.20;;
4317;SDS011;2172;53.576;9.934;2023-04-03T09:24:23;4.20;;;1.43;;
4317;SDS011;2172;53.576;9.934;2023-04-03T09:26:53;3.60;;;1.50;;
4317;SDS011;2172;53.576;9.934;2023-04-03T09:29:25;2.37;;;1.40;;
4317;SDS011;2172;53.576;9.934;2023-04-03T09:31:54;3.67;;;1.40;;
4317;SDS011;2172;53.576;9.934;2023-04-03T09:34:25;4.40;;;1.47;;
4317;SDS011;2172;53.576;9.934;2023-04-03T09:36:55;3.20;;;1.83;;
4317;SDS011;2172;53.576;9.934;2023-04-03T09:39:24;4.53;;;1.70;;
4317;SDS011;2172;53.576;9.934;2023-04-03T09:41:57;5.90;;;1.50;;
4317;SDS011;2172;53.576;9.934;2023-04-03T09:44:27;3.10;;;1.10;;
4317;SDS011;2172;53.576;9.934;2023-04-03T09:46:56;1.47;;;1.07;;
4317;SDS011;2172;53.576;9.934;2023-04-03T09:49:24;3.50;;;1.30;;
4317;SDS011;2172;53.576;9.934;2023-04-03T09:51:52;2.10;;;1.23;;
4317;SDS011;2172;53.576;9.934;2023-04-03T09:54:26;1.73;;;0.93;;
4317;SDS011;2172;53.576;9.934;2023-04-03T09:56:58;1.93;;;1.07;;
4317;SDS011;2172;53.576;9.934;2023-04-03T09:59:28;3.03;;;1.00;;
4317;SDS011;2172;53.576;9.934;2023-04-03T10:01:57;3.83;;;1.47;;
4317;SDS011;2172;53.576;9.934;2023-04-03T10:04:27;2.03;;;1.17;;
4317;SDS011;2172;53.576;9.934;2023-04-03T10:07:08;2.77;;;1.13;;
4317;SDS011;2172;53.576;9.934;2023-04-03T10:09:54;2.97;;;1.23;;
4317;SDS011;2172;53.576;9.934;2023-04-03T10:12:23;2.13;;;1.30;;
4317;SDS011;2172;53.576;9.934;2023-04-03T10:14:54;3.13;;;1.57;;
4317;SDS011;2172;53.576;9.934;2023-04-03T10:17:25;3.97;;;1.40;;
4317;SDS011;2172;53.576;9.934;2023-04-03T10:20:00;1.80;;;1.30;;
4317;SDS011;2172;53.576;9.934;2023-04-03T10:22:36;2.10;;;1.27;;
4317;SDS011;2172;53.576;9.934;2023-04-03T10:25:09;3.50;;;1.20;;
4317;SDS011;2172;53.576;9.934;2023-04-03T10:27:42;2.73;;;1.20;;
4317;SDS011;2172;53.576;9.934;2023-04-03T10:30:19;2.80;;;1.93;;
4317;SDS011;2172;53.576;9.934;2023-04-03T10:32:58;4.90;;;2.07;;
4317;SDS011;2172;53.576;9.934;2023-04-03T10:35:35;2.93;;;1.40;;
4317;SDS011;2172;53.576;9.934;2023-04-03T10:38:09;2.27;;;1.03;;
4317;SDS011;2172;53.576;9.934;2023-04-03T10:40:45;2.70;;;1.20;;
4317;SDS011;2172;53.576;9.934;2023-04-03T10:43:17;5.10;;;1.50;;
4317;SDS011;2172;53.576;9.934;2023-04-03T10:45:53;3.90;;;1.20;;
4317;SDS011;2172;53.576;9.934;2023-04-03T10:48:31;3.10;;;1.20;;
4317;SDS011;2172;53.576;9.934;2023-04-03T10:51:07;2.47;;;1.30;;
4317;SDS011;2172;53.576;9.934;2023-04-03T10:53:41;2.03;;;1.10;;
4317;SDS011;2172;53.576;9.934;2023-04-03T10:56:15;3.30;;;1.10;;
4317;SDS011;2172;53.576;9.934;2023-04-03T10:58:46;4.50;;;1.20;;
4317;SDS011;2172;53.576;9.934;2023-04-03T11:01:18;3.93;;;1.33;;
4317;SDS011;2172;53.576;9.934;2023-04-03T11:03:49;2.10;;;1.30;;
4317;SDS011;2172;53.576;9.934;2023-04-03T11:06:18;2.33;;;1.20;;
4317;SDS011;2172;53.576;9.934;2023-04-03T11:08:50;3.57;;;1.37;;
4317;SDS011;2172;53.576;9.934;2023-04-03T11:11:22;1.60;;;1.20;;
4317;SDS011;2172;53.576;9.934;2023-04-03T11:13:54;2.67;;;1.30;;
4317;SDS011;2172;53.576;9.934;2023-04-03T11:16:24;3.23;;;1.20;;
4317;SDS011;2172;53.576;9.934;2023-04-03T11:18:54;2.83;;;1.80;;
4317;SDS011;2172;53.576;9.934;2023-04-03T11:21:26;2.67;;;1.40;;
4317;SDS011;2172;53.576;9.934;2023-04-03T11:23:59;2.70;;;1.67;;
4317;SDS011;2172;53.576;9.934;2023-04-03T11:26:30;1.97;;;1.13;;
4317;SDS011;2172;53.576;9.934;2023-04-03T11:29:03;4.10;;;1.73;;
4317;SDS011;2172;53.576;9.934;2023-04-03T11:31:37;4.13;;;1.80;;
4317;SDS011;2172;53.576;9.934;2023-04-03T11:34:18;3.90;;;1.70;;
4317;SDS011;2172;53.576;9.934;2023-04-03T11:36:53;4.00;;;1.90;;
4317;SDS011;2172;53.576;9.934;2023-04-03T11:39:25;4.87;;;1.57;;
4317;SDS011;2172;53.576;9.934;2023-04-03T11:41:55;3.17;;;1.90;;
4317;SDS011;2172;53.576;9.934;2023-04-03T11:44:41;2.50;;;1.47;;
4317;SDS011;2172;53.576;9.934;2023-04-03T11:47:09;3.73;;;1.80;;
4317;SDS011;2172;53.576;9.934;2023-04-03T11:58:28;3.33;;;2.20;;
4317;SDS011;2172;53.576;9.934;2023-04-03T12:01:04;5.20;;;1.50;;
4317;SDS011;2172;53.576;9.934;2023-04-03T12:09:31;2.60;;;1.50;;
4317;SDS011;2172;53.576;9.934;2023-04-03T12:12:35;2.77;;;1.40;;
4317;SDS011;2172;53.576;9.934;2023-04-03T12:18:36;3.53;;;1.60;;
4317;SDS011;2172;53.576;9.934;2023-04-03T12:21:08;2.40;;;1.60;;
4317;SDS011;2172;53.576;9.934;2023-04-03T12:23:36;2.40;;;1.30;;
4317;SDS011;2172;53.576;9.934;2023-04-03T12:26:24;1.93;;;1.23;;
4317;SDS011;2172;53.576;9.934;2023-04-03T12:28:55;5.10;;;2.00;;
4317;SDS011;2172;53.576;9.934;2023-04-03T12:31:24;3.93;;;2.23;;
4317;SDS011;2172;53.576;9.934;2023-04-03T12:34:00;2.97;;;1.87;;
4317;SDS011;2172;53.576;9.934;2023-04-03T12:36:41;5.57;;;2.57;;
4317;SDS011;2172;53.576;9.934;2023-04-03T12:39:14;4.80;;;1.80;;
4317;SDS011;2172;53.576;9.934;2023-04-03T12:41:51;3.43;;;2.00;;
4317;SDS011;2172;53.576;9.934;2023-04-03T12:44:26;4.50;;;1.93;;
4317;SDS011;2172;53.576;9.934;2023-04-03T12:47:02;2.80;;;1.20;;
4317;SDS011;2172;53.576;9.934;2023-04-03T12:49:43;3.27;;;1.17;;
4317;SDS011;2172;53.576;9.934;2023-04-03T12:52:16;1.80;;;1.40;;
4317;SDS011;2172;53.576;9.934;2023-04-03T12:54:46;3.00;;;1.53;;
4317;SDS011;2172;53.576;9.934;2023-04-03T12:57:17;3.20;;;1.50;;
4317;SDS011;2172;53.576;9.934;2023-04-03T12:59:47;2.43;;;1.20;;
4317;SDS011;2172;53.576;9.934;2023-04-03T13:02:20;2.70;;;1.27;;
4317;SDS011;2172;53.576;9.934;2023-04-03T13:04:49;2.13;;;1.10;;
4317;SDS011;2172;53.576;9.934;2023-04-03T13:07:21;3.93;;;1.60;;
4317;SDS011;2172;53.576;9.934;2023-04-03T13:09:57;4.93;;;1.90;;
4317;SDS011;2172;53.576;9.934;2023-04-03T13:12:26;3.40;;;1.60;;
4317;SDS011;2172;53.576;9.934;2023-04-03T13:14:56;3.53;;;1.80;;
4317;SDS011;2172;53.576;9.934;2023-04-03T13:17:24;3.60;;;1.50;;
4317;SDS011;2172;53.576;9.934;2023-04-03T13:19:53;1.77;;;1.10;;
4317;SDS011;2172;53.576;9.934;2023-04-03T13:22:25;4.90;;;1.30;;
4317;SDS011;2172;53.576;9.934;2023-04-03T13:24:55;1.87;;;1.30;;
4317;SDS011;2172;53.576;9.934;2023-04-03T13:27:24;4.93;;;1.40;;
4317;SDS011;2172;53.576;9.934;2023-04-03T13:29:53;2.23;;;1.43;;
4317;SDS011;2172;53.576;9.934;2023-04-03T13:32:24;4.97;;;1.30;;
4317;SDS011;2172;53.576;9.934;2023-04-03T13:34:53;1.80;;;1.10;;
4317;SDS011;2172;53.576;9.934;2023-04-03T13:37:22;2.93;;;1.23;;
4317;SDS011;2172;53.576;9.934;2023-04-03T13:39:58;2.10;;;1.07;;
4317;SDS011;2172;53.576;9.934;2023-04-03T13:42:28;3.90;;;1.47;;
4317;SDS011;2172;53.576;9.934;2023-04-03T13:45:11;4.13;;;1.43;;
4317;SDS011;2172;53.576;9.934;2023-04-03T13:47:45;3.40;;;1.87;;
4317;SDS011;2172;53.576;9.934;2023-04-03T13:50:15;2.90;;;1.93;;
4317;SDS011;2172;53.576;9.934;2023-04-03T13:52:45;2.67;;;2.13;;
4317;SDS011;2172;53.576;9.934;2023-04-03T13:55:16;3.43;;;1.30;;
4317;SDS011;2172;53.576;9.934;2023-04-03T13:57:53;3.40;;;1.40;;
4317;SDS011;2172;53.576;9.934;2023-04-03T14:00:32;2.60;;;1.23;;
4317;SDS011;2172;53.576;9.934;2023-04-03T14:03:11;3.17;;;1.87;;
4317;SDS011;2172;53.576;9.934;2023-04-03T14:05:39;2.30;;;1.33;;
4317;SDS011;2172;53.576;9.934;2023-04-03T14:08:07;5.10;;;1.73;;
4317;SDS011;2172;53.576;9.934;2023-04-03T14:10:35;3.00;;;1.50;;
4317;SDS011;2172;53.576;9.934;2023-04-03T14:13:03;6.00;;;1.70;;
4317;SDS011;2172;53.576;9.934;2023-04-03T14:15:32;4.27;;;1.57;;
4317;SDS011;2172;53.576;9.934;2023-04-03T14:17:59;2.03;;;1.20;;
4317;SDS011;2172;53.576;9.934;2023-04-03T14:20:27;1.60;;;1.30;;
4317;SDS011;2172;53.576;9.934;2023-04-03T14:22:54;2.40;;;1.33;;
4317;SDS011;2172;53.576;9.934;2023-04-03T14:25:22;2.90;;;1.37;;
4317;SDS011;2172;53.576;9.934;2023-04-03T14:27:51;4.33;;;1.77;;
4317;SDS011;2172;53.576;9.934;2023-04-03T14:30:21;4.70;;;1.70;;
4317;SDS011;2172;53.576;9.934;2023-04-03T14:32:51;3.73;;;1.77;;
4317;SDS011;2172;53.576;9.934;2023-04-03T14:35:19;2.53;;;1.60;;
4317;SDS011;2172;53.576;9.934;2023-04-03T14:37:47;11.00;;;2.00;;
4317;SDS011;2172;53.576;9.934;2023-04-03T14:40:16;3.63;;;1.60;;
4317;SDS011;2172;53.576;9.934;2023-04-03T14:42:46;3.00;;;1.67;;
4317;SDS011;2172;53.576;9.934;2023-04-03T14:45:14;3.67;;;1.60;;
4317;SDS011;2172;53.576;9.934;2023-04-03T14:47:43;5.57;;;1.43;;
4317;SDS011;2172;53.576;9.934;2023-04-03T14:50:15;4.17;;;1.50;;
4317;SDS011;2172;53.576;9.934;2023-04-03T14:52:46;3.60;;;1.60;;
4317;SDS011;2172;53.576;9.934;2023-04-03T14:55:15;3.77;;;1.87;;
4317;SDS011;2172;53.576;9.934;2023-04-03T14:57:43;5.30;;;1.57;;
4317;SDS011;2172;53.576;9.934;2023-04-03T15:00:12;3.43;;;1.53;;
4317;SDS011;2172;53.576;9.934;2023-04-03T15:02:41;2.40;;;1.67;;
4317;SDS011;2172;53.576;9.934;2023-04-03T15:05:10;2.63;;;1.40;;
4317;SDS011;2172;53.576;9.934;2023-04-03T15:07:40;3.43;;;1.87;;
4317;SDS011;2172;53.576;9.934;2023-04-03T15:10:16;5.17;;;2.00;;
4317;SDS011;2172;53.576;9.934;2023-04-03T15:12:44;3.20;;;1.67;;
4317;SDS011;2172;53.576;9.934;2023-04-03T15:15:13;3.70;;;1.70;;
4317;SDS011;2172;53.576;9.934;2023-04-03T15:17:41;4.57;;;1.70;;
4317;SDS011;2172;53.576;9.934;2023-04-03T15:20:12;6.63;;;1.50;;
4317;SDS011;2172;53.576;9.934;2023-04-03T15:22:42;2.30;;;1.47;;
4317;SDS011;2172;53.576;9.934;2023-04-03T15:25:10;3.30;;;1.77;;
4317;SDS011;2172;53.576;9.934;2023-04-03T15:27:38;2.43;;;1.53;;
4317;SDS011;2172;53.576;9.934;2023-04-03T15:30:06;11.60;;;2.13;;
4317;SDS011;2172;53.576;9.934;2023-04-03T15:32:37;4.20;;;2.03;;
4317;SDS011;2172;53.576;9.934;2023-04-03T15:35:05;3.73;;;1.53;;
4317;SDS011;2172;53.576;9.934;2023-04-03T15:37:33;2.90;;;1.77;;
4317;SDS011;2172;53.576;9.934;2023-04-03T15:40:02;4.13;;;1.57;;
4317;SDS011;2172;53.576;9.934;2023-04-03T15:42:30;3.97;;;2.00;;
4317;SDS011;2172;53.576;9.934;2023-04-03T15:44:58;3.07;;;1.87;;
4317;SDS011;2172;53.576;9.934;2023-04-03T15:47:25;2.20;;;1.83;;
4317;SDS011;2172;53.576;9.934;2023-04-03T15:49:53;3.00;;;1.70;;
4317;SDS011;2172;53.576;9.934;2023-04-03T15:52:21;5.17;;;2.20;;